x

West Sea Otter (46204) Wave Buoy

12:00 - Tue 31st May 2016 All times are PDT. -7 hours from GMT.

  • Sig Wave height 2.3ft
  • Peak Period 16s
  • Wind
    11mph, 13mph gusts
  • Sea Temp 55°f
  • Ar Temp 54°f
  • Sea Pressure 1019.2mb
  • West Sea Otter
  • West Sea Otter

More Historic Weather Station data

Upgrade to MSW Pro to gain access to the past 30 days of data for over 8000 Wavebouys and Weather Stations around the globe.

Join Pro

Comparision Forecast

View Surf forecast
   
Ter 05/31 12:00 2.5ft 16s 11 13 mph 1019.2mb 55f 54f
11:00 2.5ft 16s 13 16 mph 1019.3mb 55f 54f
10:00 2ft 16s 11 13 mph 1019.3mb 55f 54f
9:00 2ft 16s 11 13 mph 1019.5mb 55f 54f
8:00 1.6ft 16s 9 11 mph 1019.8mb 55f 54f
7:00 2ft 16s 7
mph
1019.8mb 56f 54f
6:00 1.6ft 17s 7
mph
1020.2mb 56f 55f
5:00 2ft 17s 7
mph
1020.7mb 56f 55f
4:00 1.6ft 12s 2 4 mph 1021.2mb 55f 55f
3:00 2ft 17s 2 4 mph 1021.8mb 56f 55f
2:00 2ft 15s 4 7 mph 1022.2mb 56f 55f
1:00 2ft 17s 7 9 mph 1022.7mb 56f 55f
12:00 2ft 12s 4 7 mph 1023.2mb 56f 55f
Seg 05/30 11:00 2ft 17s 4 7 mph 1023.8mb 56f 55f
10:00 2ft 12s 2 4 mph 1024.4mb 57f 55f
9:00 2ft 13s 4
mph
1024.4mb 57f 55f
8:00 2.5ft 17s 4
mph
1024.8mb 56f 55f
7:00 2.5ft 12s 4 16 mph 1025.5mb 58f 56f
6:00 2.5ft 12s 4 18 mph 1025.8mb 58f 56f
5:00 2.5ft 13s 4
mph
1026.4mb 58f 55f
4:00 2.5ft 17s 2 4 mph 1027.1mb 58f 55f
3:00 2.5ft 12s 2 4 mph 1027.4mb 58f 55f
2:00 2.5ft 13s 4
mph
1027.5mb 57f 54f
1:00 2.5ft 13s 4
mph
1027.7mb 56f 54f
12:00 2.5ft 10s 7 9 mph 1027.5mb 56f 53f
11:00 2.5ft 13s 7 9 mph 1027.6mb 55f 53f
10:00 2.5ft 11s 7 9 mph 1027.4mb 55f 53f
9:00 2.5ft 13s 4 7 mph 1027.2mb 55f 53f
8:00 2.5ft 18s 4 7 mph 1026.8mb 55f 53f
7:00 2.5ft 14s 4
mph
1026.6mb 55f 53f
6:00 2.5ft 6s 2 4 mph 1026.5mb 55f 53f
5:00 2.5ft 6s 2 4 mph 1026.4mb 55f 52f
4:00 2.5ft 14s  -  2 mph 1026.4mb 55f 53f
3:00 2.5ft 6s 2
mph
1026.3mb 55f 52f
2:00 2.5ft 6s 2
mph
1026.1mb 55f 52f
1:00 2.5ft 7s 2 4 mph 1026mb 55f 52f
12:00 2.5ft 7s 4
mph
1025.8mb 55f 53f
Dom 05/29 11:00 2.5ft 7s 4 7 mph 1025.6mb 55f 53f
10:00 3ft 6s 4
mph
1025.2mb 55f 53f
9:00 3ft 6s 7 9 mph 1024.7mb 55f 53f
8:00 3ft 7s 4 7 mph 1024.5mb 55f 53f
7:00 3ft 7s 7 11 mph 1024.3mb 56f 53f
6:00 3.5ft 6s 9 11 mph 1024.1mb 55f 53f
5:00 3.5ft 6s 7 9 mph 1024mb 55f 53f
4:00 3.5ft 7s 7 9 mph 1023.8mb 55f 53f
3:00 3ft 14s 7 9 mph 1023.5mb 55f 53f
2:00 3ft 5s 11 13 mph 1023.2mb 55f 53f
1:00 3.5ft 6s 11 13 mph 1022.6mb 54f 53f
12:00 3.5ft 5s 11 13 mph 1022mb 54f 53f
11:00 3.5ft 6s 13 16 mph 1021.2mb 55f 53f
10:00 3.5ft 5s 13 16 mph 1020.6mb 54f 53f
9:00 3.5ft 14s 13 16 mph 1020mb 54f 53f
8:00 3.5ft 14s 16 18 mph 1019.5mb 54f 52f
7:00 3ft 5s 16 18 mph 1018.9mb 54f 52f
6:00 3ft 6s 11 13 mph 1018.5mb 54f 52f
5:00 3ft 5s 4 9 mph 1018.3mb 54f 52f
4:00 3ft 5s 4 7 mph 1018mb 54f 52f
3:00 3ft 14s 7 9 mph 1017.7mb 54f 52f
2:00 2.5ft 14s 9 11 mph 1017.5mb 54f 52f
1:00 2.5ft 14s 11 13 mph 1017.3mb 55f 52f
12:00 2ft 15s 13
mph
1017.1mb 55f 52f
Sáb 05/28 11:00 2.5ft 14s 9 11 mph 1016.9mb 55f 53f
10:00 2ft 14s 9 11 mph 1016.5mb 55f 53f
9:00 2ft 14s 11 13 mph 1015.9mb 55f 53f
8:00 2ft 14s 11 13 mph 1015.8mb 55f 53f
7:00 2ft 14s 11 13 mph 1015.5mb 55f 53f
6:00 2ft 14s 11 13 mph 1015.1mb 55f 53f
5:00 2ft 14s 11 13 mph 1014.8mb 55f 52f
4:00 2ft 7s 9 11 mph 1014.9mb 56f 52f
3:00 2ft 15s 9 11 mph 1014.8mb 56f 52f
2:00 2ft 7s 9 11 mph 1014.8mb 56f 52f
1:00 2ft 7s 7 9 mph 1014.6mb 55f 52f
12:00 2ft 6s 7 9 mph 1014.3mb 55f 51f
11:00 2ft 7s 7 11 mph 1014.2mb 55f 51f
10:00 2ft 15s 9 11 mph 1014mb 54f 51f
9:00 2ft 5s 9 11 mph 1014mb 54f 51f
8:00 2.5ft 15s 7 9 mph 1013.8mb 53f 50f
7:00 2.5ft 5s 4 7 mph 1013.8mb 53f 50f
6:00 2.5ft 15s 7
mph
1013.9mb 53f 49f
5:00 3ft 5s 9
mph
1013.9mb 53f 49f
4:00 3ft 5s 9 13 mph 1014.1mb 53f 49f
3:00 3.5ft 6s 11 13 mph 1014.5mb 53f 48f
2:00 3ft 6s 11 13 mph 1015mb 53f 48f
1:00 2.5ft 7s 11 13 mph 1015.5mb 53f 48f
12:00 2.5ft 8s 11 13 mph 1015.9mb 53f 49f
Sex 05/27 11:00 2.5ft 6s 11
mph
1016.2mb 53f 49f
10:00 2.5ft 6s 11 13 mph 1016.4mb 53f 49f
9:00 2.5ft 7s 7 9 mph 1016.3mb 54f 49f